sensor_id;sensor_type;location;lat;lon;timestamp;temperature;humidity
80426;DHT22;69766;51.476;5.704;2023-09-30T00:02:11;11.10;99.90
80426;DHT22;69766;51.476;5.704;2023-09-30T00:04:38;11.10;99.90
80426;DHT22;69766;51.476;5.704;2023-09-30T00:07:04;11.10;99.90
80426;DHT22;69766;51.476;5.704;2023-09-30T00:09:30;11.10;99.90
80426;DHT22;69766;51.476;5.704;2023-09-30T00:11:56;11.10;99.90
80426;DHT22;69766;51.476;5.704;2023-09-30T00:14:21;11.20;99.90
80426;DHT22;69766;51.476;5.704;2023-09-30T00:16:47;11.20;99.90
80426;DHT22;69766;51.476;5.704;2023-09-30T00:19:13;11.30;99.90
80426;DHT22;69766;51.476;5.704;2023-09-30T00:21:39;11.40;99.90
80426;DHT22;69766;51.476;5.704;2023-09-30T00:24:05;11.40;99.90
80426;DHT22;69766;51.476;5.704;2023-09-30T00:26:31;11.60;99.90
80426;DHT22;69766;51.476;5.704;2023-09-30T00:28:56;11.50;99.90
80426;DHT22;69766;51.476;5.704;2023-09-30T00:31:22;11.50;99.90
80426;DHT22;69766;51.476;5.704;2023-09-30T00:33:48;11.50;99.90
80426;DHT22;69766;51.476;5.704;2023-09-30T00:36:13;11.50;99.90
80426;DHT22;69766;51.476;5.704;2023-09-30T00:38:39;11.60;99.90
80426;DHT22;69766;51.476;5.704;2023-09-30T00:41:06;11.70;99.90
80426;DHT22;69766;51.476;5.704;2023-09-30T00:43:33;11.70;99.90
80426;DHT22;69766;51.476;5.704;2023-09-30T00:46:16;11.80;99.90
80426;DHT22;69766;51.476;5.704;2023-09-30T00:48:43;11.70;99.90
80426;DHT22;69766;51.476;5.704;2023-09-30T00:51:12;11.70;99.90
80426;DHT22;69766;51.476;5.704;2023-09-30T00:53:38;11.60;99.90
80426;DHT22;69766;51.476;5.704;2023-09-30T00:56:04;11.60;99.90
80426;DHT22;69766;51.476;5.704;2023-09-30T00:58:30;11.60;99.90
80426;DHT22;69766;51.476;5.704;2023-09-30T01:00:58;11.60;99.90
80426;DHT22;69766;51.476;5.704;2023-09-30T01:03:25;11.50;99.90
80426;DHT22;69766;51.476;5.704;2023-09-30T01:05:51;11.60;99.90
80426;DHT22;69766;51.476;5.704;2023-09-30T01:08:17;11.60;99.90
80426;DHT22;69766;51.476;5.704;2023-09-30T01:10:44;11.50;99.90
80426;DHT22;69766;51.476;5.704;2023-09-30T01:13:10;11.40;99.90
80426;DHT22;69766;51.476;5.704;2023-09-30T01:15:36;11.40;99.90
80426;DHT22;69766;51.476;5.704;2023-09-30T01:18:03;11.30;99.90
80426;DHT22;69766;51.476;5.704;2023-09-30T01:20:29;11.30;99.90
80426;DHT22;69766;51.476;5.704;2023-09-30T01:22:56;11.30;99.90
80426;DHT22;69766;51.476;5.704;2023-09-30T01:25:22;11.30;99.90
80426;DHT22;69766;51.476;5.704;2023-09-30T01:27:48;11.30;99.90
80426;DHT22;69766;51.476;5.704;2023-09-30T01:30:14;11.30;99.90
80426;DHT22;69766;51.476;5.704;2023-09-30T01:32:40;11.40;99.90
80426;DHT22;69766;51.476;5.704;2023-09-30T01:35:06;11.30;99.90
80426;DHT22;69766;51.476;5.704;2023-09-30T01:37:32;11.20;99.90
80426;DHT22;69766;51.476;5.704;2023-09-30T01:39:58;11.20;99.90
80426;DHT22;69766;51.476;5.704;2023-09-30T01:42:23;11.00;99.90
80426;DHT22;69766;51.476;5.704;2023-09-30T01:44:49;10.90;99.90
80426;DHT22;69766;51.476;5.704;2023-09-30T01:47:15;10.90;99.90
80426;DHT22;69766;51.476;5.704;2023-09-30T01:49:40;11.00;99.90
80426;DHT22;69766;51.476;5.704;2023-09-30T01:52:06;10.90;99.90
80426;DHT22;69766;51.476;5.704;2023-09-30T01:54:32;10.90;99.90
80426;DHT22;69766;51.476;5.704;2023-09-30T01:56:57;11.00;99.90
80426;DHT22;69766;51.476;5.704;2023-09-30T01:59:24;11.00;99.90
80426;DHT22;69766;51.476;5.704;2023-09-30T02:01:50;11.00;99.90
80426;DHT22;69766;51.476;5.704;2023-09-30T02:04:16;10.90;99.90
80426;DHT22;69766;51.476;5.704;2023-09-30T02:06:42;10.90;99.90
80426;DHT22;69766;51.476;5.704;2023-09-30T02:09:08;10.90;99.90
80426;DHT22;69766;51.476;5.704;2023-09-30T02:11:37;10.80;99.90
80426;DHT22;69766;51.476;5.704;2023-09-30T02:14:03;10.60;99.90
80426;DHT22;69766;51.476;5.704;2023-09-30T02:16:31;10.60;99.90
80426;DHT22;69766;51.476;5.704;2023-09-30T02:18:57;10.60;99.90
80426;DHT22;69766;51.476;5.704;2023-09-30T02:21:23;10.70;99.90
80426;DHT22;69766;51.476;5.704;2023-09-30T02:23:49;10.80;99.90
80426;DHT22;69766;51.476;5.704;2023-09-30T02:26:15;10.80;99.90
80426;DHT22;69766;51.476;5.704;2023-09-30T02:28:41;10.80;99.90
80426;DHT22;69766;51.476;5.704;2023-09-30T02:31:06;10.90;99.90
80426;DHT22;69766;51.476;5.704;2023-09-30T02:33:35;10.90;99.90
80426;DHT22;69766;51.476;5.704;2023-09-30T02:36:01;10.90;99.90
80426;DHT22;69766;51.476;5.704;2023-09-30T02:38:27;10.90;99.90
80426;DHT22;69766;51.476;5.704;2023-09-30T02:40:54;10.80;99.90
80426;DHT22;69766;51.476;5.704;2023-09-30T02:43:20;10.80;99.90
80426;DHT22;69766;51.476;5.704;2023-09-30T02:45:47;10.70;99.90
80426;DHT22;69766;51.476;5.704;2023-09-30T02:48:13;10.70;99.90
80426;DHT22;69766;51.476;5.704;2023-09-30T02:50:42;10.70;99.90
80426;DHT22;69766;51.476;5.704;2023-09-30T02:53:12;10.80;99.90
80426;DHT22;69766;51.476;5.704;2023-09-30T02:55:43;10.80;99.90
80426;DHT22;69766;51.476;5.704;2023-09-30T02:58:09;10.70;99.90
80426;DHT22;69766;51.476;5.704;2023-09-30T03:00:36;10.70;99.90
80426;DHT22;69766;51.476;5.704;2023-09-30T03:03:03;10.70;99.90
80426;DHT22;69766;51.476;5.704;2023-09-30T03:05:29;10.70;99.90
80426;DHT22;69766;51.476;5.704;2023-09-30T03:07:59;10.60;99.90
80426;DHT22;69766;51.476;5.704;2023-09-30T03:10:26;10.60;99.90
80426;DHT22;69766;51.476;5.704;2023-09-30T03:12:58;10.60;99.90
80426;DHT22;69766;51.476;5.704;2023-09-30T03:15:28;10.80;99.90
80426;DHT22;69766;51.476;5.704;2023-09-30T03:17:56;10.70;99.90
80426;DHT22;69766;51.476;5.704;2023-09-30T03:20:22;10.70;99.90
80426;DHT22;69766;51.476;5.704;2023-09-30T03:22:50;10.70;99.90
80426;DHT22;69766;51.476;5.704;2023-09-30T03:25:18;10.70;99.90
80426;DHT22;69766;51.476;5.704;2023-09-30T03:27:44;10.60;99.90
80426;DHT22;69766;51.476;5.704;2023-09-30T03:30:15;10.80;99.90
80426;DHT22;69766;51.476;5.704;2023-09-30T03:32:44;10.80;99.90
80426;DHT22;69766;51.476;5.704;2023-09-30T03:35:11;10.80;99.90
80426;DHT22;69766;51.476;5.704;2023-09-30T03:37:40;10.80;99.90
80426;DHT22;69766;51.476;5.704;2023-09-30T03:40:07;10.70;99.90
80426;DHT22;69766;51.476;5.704;2023-09-30T03:42:43;10.70;99.90
80426;DHT22;69766;51.476;5.704;2023-09-30T03:45:10;10.70;99.90
80426;DHT22;69766;51.476;5.704;2023-09-30T03:47:41;10.60;99.90
80426;DHT22;69766;51.476;5.704;2023-09-30T03:50:07;10.60;99.90
80426;DHT22;69766;51.476;5.704;2023-09-30T03:52:41;10.60;99.90
80426;DHT22;69766;51.476;5.704;2023-09-30T03:55:12;10.50;99.90
80426;DHT22;69766;51.476;5.704;2023-09-30T03:57:38;10.50;99.90
80426;DHT22;69766;51.476;5.704;2023-09-30T04:00:04;10.50;99.90
80426;DHT22;69766;51.476;5.704;2023-09-30T04:02:36;10.50;99.90
80426;DHT22;69766;51.476;5.704;2023-09-30T04:05:02;10.60;99.90
80426;DHT22;69766;51.476;5.704;2023-09-30T04:07:31;10.60;99.90
80426;DHT22;69766;51.476;5.704;2023-09-30T04:09:56;10.60;99.90
80426;DHT22;69766;51.476;5.704;2023-09-30T04:12:22;10.70;99.90
80426;DHT22;69766;51.476;5.704;2023-09-30T04:14:50;10.70;99.90
80426;DHT22;69766;51.476;5.704;2023-09-30T04:17:15;10.80;99.90
80426;DHT22;69766;51.476;5.704;2023-09-30T04:19:46;10.70;99.90
80426;DHT22;69766;51.476;5.704;2023-09-30T04:22:16;10.70;99.90
80426;DHT22;69766;51.476;5.704;2023-09-30T04:24:46;10.70;99.90
80426;DHT22;69766;51.476;5.704;2023-09-30T04:27:12;10.60;99.90
80426;DHT22;69766;51.476;5.704;2023-09-30T04:29:37;10.60;99.90
80426;DHT22;69766;51.476;5.704;2023-09-30T04:32:04;10.70;99.90
80426;DHT22;69766;51.476;5.704;2023-09-30T04:34:30;10.70;99.90
80426;DHT22;69766;51.476;5.704;2023-09-30T04:36:56;10.70;99.90
80426;DHT22;69766;51.476;5.704;2023-09-30T04:39:21;10.60;99.90
80426;DHT22;69766;51.476;5.704;2023-09-30T04:41:48;10.60;99.90
80426;DHT22;69766;51.476;5.704;2023-09-30T04:44:16;10.50;99.90
80426;DHT22;69766;51.476;5.704;2023-09-30T04:46:42;10.60;99.90
80426;DHT22;69766;51.476;5.704;2023-09-30T04:49:14;10.50;99.90
80426;DHT22;69766;51.476;5.704;2023-09-30T04:51:41;10.40;99.90
80426;DHT22;69766;51.476;5.704;2023-09-30T04:54:06;10.40;99.90
80426;DHT22;69766;51.476;5.704;2023-09-30T04:56:36;10.30;99.90
80426;DHT22;69766;51.476;5.704;2023-09-30T04:59:02;10.40;99.90
80426;DHT22;69766;51.476;5.704;2023-09-30T05:01:29;10.40;99.90
80426;DHT22;69766;51.476;5.704;2023-09-30T05:03:55;10.40;99.90
80426;DHT22;69766;51.476;5.704;2023-09-30T05:06:21;10.30;99.90
80426;DHT22;69766;51.476;5.704;2023-09-30T05:08:47;10.30;99.90
80426;DHT22;69766;51.476;5.704;2023-09-30T05:11:13;10.30;99.90
80426;DHT22;69766;51.476;5.704;2023-09-30T05:13:39;10.30;99.90
80426;DHT22;69766;51.476;5.704;2023-09-30T05:16:04;10.40;99.90
80426;DHT22;69766;51.476;5.704;2023-09-30T05:18:32;10.40;99.90
80426;DHT22;69766;51.476;5.704;2023-09-30T05:20:57;10.40;99.90
80426;DHT22;69766;51.476;5.704;2023-09-30T05:23:23;10.30;99.90
80426;DHT22;69766;51.476;5.704;2023-09-30T05:25:51;10.30;99.90
80426;DHT22;69766;51.476;5.704;2023-09-30T05:28:17;10.30;99.90
80426;DHT22;69766;51.476;5.704;2023-09-30T05:30:42;10.20;99.90
80426;DHT22;69766;51.476;5.704;2023-09-30T05:33:09;10.20;99.90
80426;DHT22;69766;51.476;5.704;2023-09-30T05:35:42;10.20;99.90
80426;DHT22;69766;51.476;5.704;2023-09-30T05:38:08;10.20;99.90
80426;DHT22;69766;51.476;5.704;2023-09-30T05:40:37;10.10;99.90
80426;DHT22;69766;51.476;5.704;2023-09-30T05:43:03;10.30;99.90
80426;DHT22;69766;51.476;5.704;2023-09-30T05:45:32;10.20;99.90
80426;DHT22;69766;51.476;5.704;2023-09-30T05:48:04;10.20;99.90
80426;DHT22;69766;51.476;5.704;2023-09-30T05:50:33;10.00;99.90
80426;DHT22;69766;51.476;5.704;2023-09-30T05:52:59;10.00;99.90
80426;DHT22;69766;51.476;5.704;2023-09-30T05:55:25;9.90;99.90
80426;DHT22;69766;51.476;5.704;2023-09-30T05:57:54;10.10;99.90
80426;DHT22;69766;51.476;5.704;2023-09-30T06:00:20;10.00;99.90
80426;DHT22;69766;51.476;5.704;2023-09-30T06:02:49;10.00;99.90
80426;DHT22;69766;51.476;5.704;2023-09-30T06:05:16;10.10;99.90
80426;DHT22;69766;51.476;5.704;2023-09-30T06:07:45;10.10;99.90
80426;DHT22;69766;51.476;5.704;2023-09-30T06:10:11;10.10;99.90
80426;DHT22;69766;51.476;5.704;2023-09-30T06:12:37;10.00;99.90
80426;DHT22;69766;51.476;5.704;2023-09-30T06:15:03;10.00;99.90
80426;DHT22;69766;51.476;5.704;2023-09-30T06:17:29;10.00;99.90
80426;DHT22;69766;51.476;5.704;2023-09-30T06:19:54;10.10;99.90
80426;DHT22;69766;51.476;5.704;2023-09-30T06:22:20;10.20;99.90
80426;DHT22;69766;51.476;5.704;2023-09-30T06:24:46;10.20;99.90
80426;DHT22;69766;51.476;5.704;2023-09-30T06:27:13;10.50;99.90
80426;DHT22;69766;51.476;5.704;2023-09-30T06:29:39;10.50;99.90
80426;DHT22;69766;51.476;5.704;2023-09-30T06:32:06;10.50;99.90
80426;DHT22;69766;51.476;5.704;2023-09-30T06:34:32;10.60;99.90
80426;DHT22;69766;51.476;5.704;2023-09-30T06:36:59;10.60;99.90
80426;DHT22;69766;51.476;5.704;2023-09-30T06:39:34;10.70;99.90
80426;DHT22;69766;51.476;5.704;2023-09-30T06:42:02;10.70;99.90
80426;DHT22;69766;51.476;5.704;2023-09-30T06:44:28;10.60;99.90
80426;DHT22;69766;51.476;5.704;2023-09-30T06:46:56;10.70;99.90
80426;DHT22;69766;51.476;5.704;2023-09-30T06:49:22;10.80;99.90
80426;DHT22;69766;51.476;5.704;2023-09-30T06:51:48;10.80;99.90
80426;DHT22;69766;51.476;5.704;2023-09-30T06:54:13;10.90;99.90
80426;DHT22;69766;51.476;5.704;2023-09-30T06:56:39;11.00;99.90
80426;DHT22;69766;51.476;5.704;2023-09-30T06:59:06;11.10;99.90
80426;DHT22;69766;51.476;5.704;2023-09-30T07:01:32;11.20;99.90
80426;DHT22;69766;51.476;5.704;2023-09-30T07:03:57;11.40;99.90
80426;DHT22;69766;51.476;5.704;2023-09-30T07:06:24;11.40;99.90
80426;DHT22;69766;51.476;5.704;2023-09-30T07:08:50;11.50;99.90
80426;DHT22;69766;51.476;5.704;2023-09-30T07:11:16;11.70;99.90
80426;DHT22;69766;51.476;5.704;2023-09-30T07:13:42;11.80;99.90
80426;DHT22;69766;51.476;5.704;2023-09-30T07:16:08;12.00;99.90
80426;DHT22;69766;51.476;5.704;2023-09-30T07:18:33;12.00;99.90
80426;DHT22;69766;51.476;5.704;2023-09-30T07:21:01;12.10;99.90
80426;DHT22;69766;51.476;5.704;2023-09-30T07:23:30;12.10;99.90
80426;DHT22;69766;51.476;5.704;2023-09-30T07:25:56;12.20;99.90
80426;DHT22;69766;51.476;5.704;2023-09-30T07:28:22;12.20;99.90
80426;DHT22;69766;51.476;5.704;2023-09-30T07:30:48;12.20;99.90
80426;DHT22;69766;51.476;5.704;2023-09-30T07:33:14;12.30;99.90
80426;DHT22;69766;51.476;5.704;2023-09-30T07:35:39;12.50;99.90
80426;DHT22;69766;51.476;5.704;2023-09-30T07:38:05;12.60;99.90
80426;DHT22;69766;51.476;5.704;2023-09-30T07:40:31;12.70;99.90
80426;DHT22;69766;51.476;5.704;2023-09-30T07:42:58;12.70;99.90
80426;DHT22;69766;51.476;5.704;2023-09-30T07:45:26;12.90;99.90
80426;DHT22;69766;51.476;5.704;2023-09-30T07:47:51;13.00;99.90
80426;DHT22;69766;51.476;5.704;2023-09-30T07:50:17;13.10;99.90
80426;DHT22;69766;51.476;5.704;2023-09-30T07:52:46;13.20;99.90
80426;DHT22;69766;51.476;5.704;2023-09-30T07:55:12;13.30;99.90
80426;DHT22;69766;51.476;5.704;2023-09-30T07:57:40;13.30;99.90
80426;DHT22;69766;51.476;5.704;2023-09-30T08:00:10;13.30;99.90
80426;DHT22;69766;51.476;5.704;2023-09-30T08:02:40;13.40;99.90
80426;DHT22;69766;51.476;5.704;2023-09-30T08:05:06;13.40;99.90
80426;DHT22;69766;51.476;5.704;2023-09-30T08:07:33;13.40;99.90
80426;DHT22;69766;51.476;5.704;2023-09-30T08:09:59;13.50;99.90
80426;DHT22;69766;51.476;5.704;2023-09-30T08:12:25;13.50;99.90
80426;DHT22;69766;51.476;5.704;2023-09-30T08:14:51;13.70;99.90
80426;DHT22;69766;51.476;5.704;2023-09-30T08:17:17;13.70;99.90
80426;DHT22;69766;51.476;5.704;2023-09-30T08:19:44;13.80;99.90
80426;DHT22;69766;51.476;5.704;2023-09-30T08:22:10;13.90;99.90
80426;DHT22;69766;51.476;5.704;2023-09-30T08:24:35;14.00;99.90
80426;DHT22;69766;51.476;5.704;2023-09-30T08:27:01;14.20;99.90
80426;DHT22;69766;51.476;5.704;2023-09-30T08:29:27;14.20;99.90
80426;DHT22;69766;51.476;5.704;2023-09-30T08:31:52;14.30;99.90
80426;DHT22;69766;51.476;5.704;2023-09-30T08:34:18;14.40;99.90
80426;DHT22;69766;51.476;5.704;2023-09-30T08:36:46;14.40;99.90
80426;DHT22;69766;51.476;5.704;2023-09-30T08:39:12;14.60;99.90
80426;DHT22;69766;51.476;5.704;2023-09-30T08:41:38;14.70;99.90
80426;DHT22;69766;51.476;5.704;2023-09-30T08:44:04;14.90;99.90
80426;DHT22;69766;51.476;5.704;2023-09-30T08:46:34;14.90;99.90
80426;DHT22;69766;51.476;5.704;2023-09-30T08:49:04;15.10;99.90
80426;DHT22;69766;51.476;5.704;2023-09-30T08:51:33;15.20;99.90
80426;DHT22;69766;51.476;5.704;2023-09-30T08:53:59;15.30;99.90
80426;DHT22;69766;51.476;5.704;2023-09-30T08:56:30;15.40;99.90
80426;DHT22;69766;51.476;5.704;2023-09-30T08:59:01;15.50;99.90
80426;DHT22;69766;51.476;5.704;2023-09-30T09:01:29;15.60;99.90
80426;DHT22;69766;51.476;5.704;2023-09-30T09:03:55;15.80;99.90
80426;DHT22;69766;51.476;5.704;2023-09-30T09:06:25;15.90;99.90
80426;DHT22;69766;51.476;5.704;2023-09-30T09:08:51;15.90;99.90
80426;DHT22;69766;51.476;5.704;2023-09-30T09:11:18;16.10;99.90
80426;DHT22;69766;51.476;5.704;2023-09-30T09:13:48;16.10;99.90
80426;DHT22;69766;51.476;5.704;2023-09-30T09:16:22;16.20;99.90
80426;DHT22;69766;51.476;5.704;2023-09-30T09:18:48;16.20;99.90
80426;DHT22;69766;51.476;5.704;2023-09-30T09:21:18;16.30;99.90
80426;DHT22;69766;51.476;5.704;2023-09-30T09:23:50;16.30;99.90
80426;DHT22;69766;51.476;5.704;2023-09-30T09:26:30;16.30;99.90
80426;DHT22;69766;51.476;5.704;2023-09-30T09:28:58;16.60;99.90
80426;DHT22;69766;51.476;5.704;2023-09-30T09:31:29;16.80;99.90
80426;DHT22;69766;51.476;5.704;2023-09-30T09:33:54;17.10;99.90
80426;DHT22;69766;51.476;5.704;2023-09-30T09:36:20;17.20;99.90
80426;DHT22;69766;51.476;5.704;2023-09-30T09:38:48;17.70;99.90
80426;DHT22;69766;51.476;5.704;2023-09-30T09:41:15;18.60;99.90
80426;DHT22;69766;51.476;5.704;2023-09-30T09:43:42;19.60;99.90
80426;DHT22;69766;51.476;5.704;2023-09-30T09:46:09;20.00;99.90
80426;DHT22;69766;51.476;5.704;2023-09-30T09:48:36;20.70;99.90
80426;DHT22;69766;51.476;5.704;2023-09-30T09:51:02;21.10;99.90
80426;DHT22;69766;51.476;5.704;2023-09-30T09:53:35;21.00;99.90
80426;DHT22;69766;51.476;5.704;2023-09-30T09:56:02;20.70;99.90
80426;DHT22;69766;51.476;5.704;2023-09-30T09:58:32;20.10;99.90
80426;DHT22;69766;51.476;5.704;2023-09-30T10:01:01;19.70;99.90
80426;DHT22;69766;51.476;5.704;2023-09-30T10:03:26;19.20;99.90
80426;DHT22;69766;51.476;5.704;2023-09-30T10:05:53;18.90;99.90
80426;DHT22;69766;51.476;5.704;2023-09-30T10:08:20;19.00;99.90
80426;DHT22;69766;51.476;5.704;2023-09-30T10:10:47;19.70;99.90
80426;DHT22;69766;51.476;5.704;2023-09-30T10:19:31;22.00;99.90
80426;DHT22;69766;51.476;5.704;2023-09-30T10:24:45;21.70;99.90
80426;DHT22;69766;51.476;5.704;2023-09-30T10:40:53;20.50;99.90
80426;DHT22;69766;51.476;5.704;2023-09-30T10:43:47;20.20;99.90
80426;DHT22;69766;51.476;5.704;2023-09-30T10:48:54;19.40;99.90
80426;DHT22;69766;51.476;5.704;2023-09-30T10:51:21;19.40;99.90
80426;DHT22;69766;51.476;5.704;2023-09-30T10:53:54;19.60;99.90
80426;DHT22;69766;51.476;5.704;2023-09-30T10:56:32;20.10;99.90
80426;DHT22;69766;51.476;5.704;2023-09-30T10:58:58;20.40;99.90
80426;DHT22;69766;51.476;5.704;2023-09-30T11:01:32;20.30;99.90
80426;DHT22;69766;51.476;5.704;2023-09-30T11:04:01;19.80;99.90
80426;DHT22;69766;51.476;5.704;2023-09-30T11:06:29;19.50;99.90
80426;DHT22;69766;51.476;5.704;2023-09-30T11:08:59;19.30;99.90
80426;DHT22;69766;51.476;5.704;2023-09-30T11:11:40;19.10;99.90
80426;DHT22;69766;51.476;5.704;2023-09-30T11:14:28;18.90;99.90
80426;DHT22;69766;51.476;5.704;2023-09-30T11:17:03;19.10;99.90
80426;DHT22;69766;51.476;5.704;2023-09-30T11:19:36;19.50;99.90
80426;DHT22;69766;51.476;5.704;2023-09-30T11:22:05;19.80;99.90
80426;DHT22;69766;51.476;5.704;2023-09-30T11:24:36;19.90;99.90
80426;DHT22;69766;51.476;5.704;2023-09-30T11:27:02;20.20;99.90
80426;DHT22;69766;51.476;5.704;2023-09-30T11:29:28;20.40;99.90
80426;DHT22;69766;51.476;5.704;2023-09-30T11:31:54;20.60;99.90
80426;DHT22;69766;51.476;5.704;2023-09-30T11:34:34;20.80;99.90
80426;DHT22;69766;51.476;5.704;2023-09-30T11:37:04;21.10;99.90
80426;DHT22;69766;51.476;5.704;2023-09-30T11:39:31;21.10;99.90
80426;DHT22;69766;51.476;5.704;2023-09-30T11:41:57;21.30;99.90
80426;DHT22;69766;51.476;5.704;2023-09-30T11:44:26;21.40;99.90
80426;DHT22;69766;51.476;5.704;2023-09-30T11:46:55;21.00;99.90
80426;DHT22;69766;51.476;5.704;2023-09-30T11:49:38;20.70;99.90
80426;DHT22;69766;51.476;5.704;2023-09-30T11:52:10;20.80;99.90
80426;DHT22;69766;51.476;5.704;2023-09-30T11:54:47;20.70;99.90
80426;DHT22;69766;51.476;5.704;2023-09-30T11:57:16;20.60;99.90
80426;DHT22;69766;51.476;5.704;2023-09-30T11:59:47;21.40;99.90
80426;DHT22;69766;51.476;5.704;2023-09-30T12:02:13;22.60;99.90
80426;DHT22;69766;51.476;5.704;2023-09-30T12:04:48;23.10;99.90
80426;DHT22;69766;51.476;5.704;2023-09-30T12:07:13;23.40;99.90
80426;DHT22;69766;51.476;5.704;2023-09-30T12:09:39;23.80;99.90
80426;DHT22;69766;51.476;5.704;2023-09-30T12:12:06;24.10;99.90
80426;DHT22;69766;51.476;5.704;2023-09-30T12:14:34;23.60;99.90
80426;DHT22;69766;51.476;5.704;2023-09-30T12:17:00;23.70;99.60
80426;DHT22;69766;51.476;5.704;2023-09-30T12:19:26;23.60;99.90
80426;DHT22;69766;51.476;5.704;2023-09-30T12:21:52;24.00;98.30
80426;DHT22;69766;51.476;5.704;2023-09-30T12:24:18;24.60;95.70
80426;DHT22;69766;51.476;5.704;2023-09-30T12:26:47;25.40;95.30
80426;DHT22;69766;51.476;5.704;2023-09-30T12:29:21;25.30;93.10
80426;DHT22;69766;51.476;5.704;2023-09-30T12:31:52;25.60;92.20
80426;DHT22;69766;51.476;5.704;2023-09-30T12:34:18;25.40;91.60
80426;DHT22;69766;51.476;5.704;2023-09-30T12:36:47;24.90;91.40
80426;DHT22;69766;51.476;5.704;2023-09-30T12:39:13;24.20;92.30
80426;DHT22;69766;51.476;5.704;2023-09-30T12:41:42;23.30;94.70
80426;DHT22;69766;51.476;5.704;2023-09-30T12:44:09;22.70;95.00
80426;DHT22;69766;51.476;5.704;2023-09-30T12:46:35;22.00;97.60
80426;DHT22;69766;51.476;5.704;2023-09-30T12:49:08;22.30;98.90
80426;DHT22;69766;51.476;5.704;2023-09-30T12:51:35;22.70;99.00
80426;DHT22;69766;51.476;5.704;2023-09-30T12:54:01;23.60;97.10
80426;DHT22;69766;51.476;5.704;2023-09-30T12:56:27;24.70;92.50
80426;DHT22;69766;51.476;5.704;2023-09-30T12:58:55;24.50;93.50
80426;DHT22;69766;51.476;5.704;2023-09-30T13:01:21;25.10;92.40
80426;DHT22;69766;51.476;5.704;2023-09-30T13:03:48;25.70;91.00
80426;DHT22;69766;51.476;5.704;2023-09-30T13:06:14;25.90;91.10
80426;DHT22;69766;51.476;5.704;2023-09-30T13:08:41;25.50;90.30
80426;DHT22;69766;51.476;5.704;2023-09-30T13:11:07;25.20;89.50
80426;DHT22;69766;51.476;5.704;2023-09-30T13:13:33;24.10;91.70
80426;DHT22;69766;51.476;5.704;2023-09-30T13:16:04;23.60;93.10
80426;DHT22;69766;51.476;5.704;2023-09-30T13:18:31;23.00;92.80
80426;DHT22;69766;51.476;5.704;2023-09-30T13:20:58;22.60;94.10
80426;DHT22;69766;51.476;5.704;2023-09-30T13:23:23;22.40;95.10
80426;DHT22;69766;51.476;5.704;2023-09-30T13:25:49;22.80;96.60
80426;DHT22;69766;51.476;5.704;2023-09-30T13:28:15;22.50;95.50
80426;DHT22;69766;51.476;5.704;2023-09-30T13:30:41;22.20;97.00
80426;DHT22;69766;51.476;5.704;2023-09-30T13:33:07;22.10;98.30
80426;DHT22;69766;51.476;5.704;2023-09-30T13:35:33;22.40;97.10
80426;DHT22;69766;51.476;5.704;2023-09-30T13:38:01;22.80;96.70
80426;DHT22;69766;51.476;5.704;2023-09-30T13:40:30;22.90;99.30
80426;DHT22;69766;51.476;5.704;2023-09-30T13:42:56;22.70;97.40
80426;DHT22;69766;51.476;5.704;2023-09-30T13:45:25;22.60;99.30
80426;DHT22;69766;51.476;5.704;2023-09-30T13:47:51;22.70;98.20
80426;DHT22;69766;51.476;5.704;2023-09-30T13:50:16;22.30;97.20
80426;DHT22;69766;51.476;5.704;2023-09-30T13:52:42;22.30;98.70
80426;DHT22;69766;51.476;5.704;2023-09-30T13:55:08;21.70;99.90
80426;DHT22;69766;51.476;5.704;2023-09-30T13:57:34;21.50;99.90
80426;DHT22;69766;51.476;5.704;2023-09-30T14:00:04;21.30;99.90
80426;DHT22;69766;51.476;5.704;2023-09-30T14:02:32;21.50;99.90
80426;DHT22;69766;51.476;5.704;2023-09-30T14:04:58;21.30;99.90
80426;DHT22;69766;51.476;5.704;2023-09-30T14:07:26;21.40;99.90
80426;DHT22;69766;51.476;5.704;2023-09-30T14:09:53;22.10;99.90
80426;DHT22;69766;51.476;5.704;2023-09-30T14:12:19;22.30;99.90
80426;DHT22;69766;51.476;5.704;2023-09-30T14:14:44;23.10;99.90
80426;DHT22;69766;51.476;5.704;2023-09-30T14:17:10;23.90;98.20
80426;DHT22;69766;51.476;5.704;2023-09-30T14:19:37;24.00;96.70
80426;DHT22;69766;51.476;5.704;2023-09-30T14:22:09;24.60;94.60
80426;DHT22;69766;51.476;5.704;2023-09-30T14:24:37;24.10;94.00
80426;DHT22;69766;51.476;5.704;2023-09-30T14:27:03;24.00;94.70
80426;DHT22;69766;51.476;5.704;2023-09-30T14:29:33;24.00;94.00
80426;DHT22;69766;51.476;5.704;2023-09-30T14:31:58;24.00;93.80
80426;DHT22;69766;51.476;5.704;2023-09-30T14:34:24;24.10;94.50
80426;DHT22;69766;51.476;5.704;2023-09-30T14:36:51;23.60;93.40
80426;DHT22;69766;51.476;5.704;2023-09-30T14:39:17;23.20;96.20
80426;DHT22;69766;51.476;5.704;2023-09-30T14:41:44;22.80;96.20
80426;DHT22;69766;51.476;5.704;2023-09-30T14:44:10;22.30;97.40
80426;DHT22;69766;51.476;5.704;2023-09-30T14:46:40;21.60;98.50
80426;DHT22;69766;51.476;5.704;2023-09-30T14:49:06;21.50;99.40
80426;DHT22;69766;51.476;5.704;2023-09-30T14:51:33;21.40;99.90
80426;DHT22;69766;51.476;5.704;2023-09-30T14:53:58;21.60;98.90
80426;DHT22;69766;51.476;5.704;2023-09-30T14:56:24;21.60;99.90
80426;DHT22;69766;51.476;5.704;2023-09-30T14:58:50;21.00;99.90
80426;DHT22;69766;51.476;5.704;2023-09-30T15:01:21;20.60;99.90
80426;DHT22;69766;51.476;5.704;2023-09-30T15:03:47;20.50;99.90
80426;DHT22;69766;51.476;5.704;2023-09-30T15:06:14;20.20;99.90
80426;DHT22;69766;51.476;5.704;2023-09-30T15:08:39;20.40;99.90
80426;DHT22;69766;51.476;5.704;2023-09-30T15:11:05;20.60;99.90
80426;DHT22;69766;51.476;5.704;2023-09-30T15:13:31;21.00;99.90
80426;DHT22;69766;51.476;5.704;2023-09-30T15:15:57;20.90;99.90
80426;DHT22;69766;51.476;5.704;2023-09-30T15:18:23;21.10;99.90
80426;DHT22;69766;51.476;5.704;2023-09-30T15:20:52;21.20;99.90
80426;DHT22;69766;51.476;5.704;2023-09-30T15:23:17;21.00;99.90
80426;DHT22;69766;51.476;5.704;2023-09-30T15:25:44;20.70;99.90
80426;DHT22;69766;51.476;5.704;2023-09-30T15:28:11;20.50;99.90
80426;DHT22;69766;51.476;5.704;2023-09-30T15:30:37;20.30;99.90
80426;DHT22;69766;51.476;5.704;2023-09-30T15:33:04;20.10;99.90
80426;DHT22;69766;51.476;5.704;2023-09-30T15:35:29;20.20;99.90
80426;DHT22;69766;51.476;5.704;2023-09-30T15:37:55;20.20;99.90
80426;DHT22;69766;51.476;5.704;2023-09-30T15:40:22;20.20;99.90
80426;DHT22;69766;51.476;5.704;2023-09-30T15:42:50;20.10;99.90
80426;DHT22;69766;51.476;5.704;2023-09-30T15:45:16;20.00;99.90
80426;DHT22;69766;51.476;5.704;2023-09-30T15:47:48;20.00;99.90
80426;DHT22;69766;51.476;5.704;2023-09-30T15:50:16;19.80;99.90
80426;DHT22;69766;51.476;5.704;2023-09-30T15:52:42;19.80;99.90
80426;DHT22;69766;51.476;5.704;2023-09-30T15:55:10;19.70;99.90
80426;DHT22;69766;51.476;5.704;2023-09-30T15:57:36;19.40;99.90